Time;durP1;ratioP1;P1;durP2;ratioP2;P2;SDS_P1;SDS_P2;PMS_P1;PMS_P2;Temp;Humidity;BMP_temperature;BMP_pressure;BME280_temperature;BME280_humidity;BME280_pressure;Samples;Min_cycle;Max_cycle;Signal;HPM_P1;HPM_P2
2022/10/04 00:02:30;;;;;;;0.10;0.10;;;11.90;99.90;;;;;;4977292;28;20206;-77
2022/10/04 00:05:02;;;;;;;0.10;0.10;;;11.80;99.90;;;;;;4967346;28;20247;-77
2022/10/04 00:07:37;;;;;;;0.10;0.10;;;11.80;99.90;;;;;;4983164;28;20607;-77
2022/10/04 00:10:17;;;;;;;0.10;0.10;;;11.80;99.90;;;;;;4986778;28;20282;-77
2022/10/04 00:12:48;;;;;;;0.10;0.10;;;11.80;99.90;;;;;;4967608;28;20201;-76
2022/10/04 00:15:21;;;;;;;0.10;0.10;;;11.80;99.90;;;;;;4971424;28;20213;-76
2022/10/04 00:18:06;;;;;;;0.10;0.10;;;11.80;99.90;;;;;;4979132;28;20212;-76
2022/10/04 00:21:01;;;;;;;0.10;0.10;;;11.90;99.90;;;;;;4993124;28;20231;-78
2022/10/04 00:23:42;;;;;;;0.00;0.00;;;11.80;99.90;;;;;;4979080;28;20206;-76
2022/10/04 00:26:30;;;;;;;0.08;0.08;;;11.90;99.90;;;;;;4991874;28;20208;-76
2022/10/04 00:28:58;;;;;;;0.10;0.10;;;11.90;99.90;;;;;;4992845;28;20228;-77
2022/10/04 00:31:27;;;;;;;0.00;0.00;;;12.00;99.90;;;;;;4970611;28;20213;-76
2022/10/04 00:34:18;;;;;;;0.10;0.10;;;12.10;99.90;;;;;;4994921;28;20239;-76
2022/10/04 00:36:52;;;;;;;0.10;0.10;;;12.20;99.90;;;;;;4992207;28;20256;-76
2022/10/04 00:39:38;;;;;;;0.10;0.10;;;12.20;99.90;;;;;;4986290;28;20233;-76
2022/10/04 00:42:18;;;;;;;0.10;0.10;;;12.10;99.90;;;;;;4973961;28;20208;-76
2022/10/04 00:44:51;;;;;;;0.00;0.00;;;12.10;99.90;;;;;;4990020;28;20204;-76
2022/10/04 00:47:26;;;;;;;0.10;0.10;;;12.10;99.90;;;;;;4989489;28;20204;-76
2022/10/04 00:50:01;;;;;;;0.00;0.00;;;12.20;99.90;;;;;;5001153;28;20228;-76
2022/10/04 00:52:34;;;;;;;0.10;0.10;;;12.20;99.90;;;;;;5004292;28;20208;-76
2022/10/04 00:55:06;;;;;;;0.10;0.10;;;12.20;99.90;;;;;;4989883;28;20626;-76
2022/10/04 00:57:40;;;;;;;0.10;0.10;;;12.10;99.90;;;;;;5001654;28;20353;-76
2022/10/04 01:00:13;;;;;;;0.00;0.00;;;12.00;99.90;;;;;;4989148;28;20822;-75
2022/10/04 01:02:51;;;;;;;0.00;0.00;;;12.00;99.90;;;;;;4988758;28;20217;-76
2022/10/04 01:05:25;;;;;;;0.00;0.00;;;12.00;99.90;;;;;;4987549;28;20205;-74
2022/10/04 01:07:58;;;;;;;0.10;0.10;;;12.00;99.90;;;;;;5004787;28;20208;-75
2022/10/04 01:10:31;;;;;;;0.08;0.08;;;11.90;99.90;;;;;;5007163;28;20255;-75
2022/10/04 01:13:07;;;;;;;0.03;0.03;;;11.90;99.90;;;;;;4983927;28;20216;-75
2022/10/04 01:15:42;;;;;;;0.10;0.10;;;12.00;99.90;;;;;;4960910;28;20236;-76
2022/10/04 01:18:14;;;;;;;0.00;0.00;;;12.00;99.90;;;;;;4991899;28;20210;-76
2022/10/04 01:20:53;;;;;;;0.10;0.10;;;12.00;99.90;;;;;;4975458;28;23882;-76
2022/10/04 01:23:43;;;;;;;0.00;0.00;;;12.00;99.90;;;;;;4988028;28;20212;-76
2022/10/04 01:26:39;;;;;;;0.10;0.10;;;12.10;99.90;;;;;;4981141;28;20240;-76
2022/10/04 01:29:11;;;;;;;0.00;0.00;;;12.20;99.90;;;;;;4960119;28;20284;-76
2022/10/04 01:31:41;;;;;;;0.10;0.10;;;12.20;99.90;;;;;;4985054;28;20284;-76
2022/10/04 01:34:13;;;;;;;0.00;0.00;;;12.20;99.90;;;;;;4984177;28;20212;-76
2022/10/04 01:36:41;;;;;;;0.00;0.00;;;12.20;99.90;;;;;;4982587;28;20200;-76
2022/10/04 01:39:11;;;;;;;0.00;0.00;;;12.10;99.90;;;;;;4985811;28;20569;-76
2022/10/04 01:41:49;;;;;;;0.10;0.10;;;12.00;99.90;;;;;;4982795;28;20209;-76
2022/10/04 01:44:27;;;;;;;0.10;0.10;;;12.00;99.90;;;;;;4989094;28;20235;-76
2022/10/04 01:47:02;;;;;;;0.00;0.00;;;12.00;99.90;;;;;;4993636;28;20200;-76
2022/10/04 01:49:34;;;;;;;0.00;0.00;;;11.90;99.90;;;;;;4981680;28;20298;-76
2022/10/04 01:52:06;;;;;;;0.00;0.00;;;11.90;99.90;;;;;;4971833;28;20709;-76
2022/10/04 01:54:39;;;;;;;0.10;0.10;;;11.90;99.90;;;;;;4974185;28;20216;-75
2022/10/04 01:57:13;;;;;;;0.00;0.00;;;11.80;99.90;;;;;;4983449;28;20259;-75
2022/10/04 01:59:49;;;;;;;0.10;0.10;;;11.90;99.90;;;;;;4991292;28;20278;-75
2022/10/04 02:02:24;;;;;;;0.10;0.10;;;11.90;99.90;;;;;;4975748;28;20212;-75
2022/10/04 02:04:55;;;;;;;0.00;0.00;;;11.90;99.90;;;;;;4972298;28;20212;-75
2022/10/04 02:07:27;;;;;;;0.10;0.10;;;11.80;99.90;;;;;;4983942;28;20288;-75
2022/10/04 02:09:59;;;;;;;0.00;0.00;;;11.90;99.90;;;;;;4987978;28;20750;-75
2022/10/04 02:12:30;;;;;;;0.10;0.10;;;11.80;99.90;;;;;;4973379;28;20205;-77
2022/10/04 02:15:01;;;;;;;0.10;0.10;;;11.80;99.90;;;;;;4968536;28;20200;-77
2022/10/04 02:17:31;;;;;;;0.08;0.08;;;11.80;99.90;;;;;;4985398;28;20679;-76
2022/10/04 02:20:01;;;;;;;0.10;0.10;;;11.80;99.90;;;;;;4953670;28;20240;-76
2022/10/04 02:22:30;;;;;;;0.10;0.10;;;11.90;99.90;;;;;;4972559;28;20239;-77
2022/10/04 02:25:00;;;;;;;0.00;0.00;;;11.90;99.90;;;;;;4986120;28;20197;-77
2022/10/04 02:27:30;;;;;;;0.10;0.10;;;11.90;99.90;;;;;;4986435;28;20258;-77
2022/10/04 02:30:02;;;;;;;0.00;0.00;;;11.90;99.90;;;;;;4973589;28;20272;-77
2022/10/04 02:35:19;;;;;;;0.00;0.00;;;11.90;99.90;;;;;;4972904;28;20201;-77
2022/10/04 02:37:51;;;;;;;0.10;0.10;;;11.90;99.90;;;;;;4985724;28;20206;-77
2022/10/04 02:40:27;;;;;;;0.00;0.00;;;11.90;99.90;;;;;;4993041;28;20228;-77
2022/10/04 02:42:59;;;;;;;0.10;0.10;;;11.90;99.90;;;;;;4985885;28;20718;-77
2022/10/04 02:45:39;;;;;;;0.10;0.10;;;11.90;99.90;;;;;;4982147;28;20205;-77
2022/10/04 02:48:27;;;;;;;0.10;0.10;;;11.90;99.90;;;;;;4979623;28;20208;-78
2022/10/04 02:50:59;;;;;;;0.00;0.00;;;11.90;99.90;;;;;;4966015;28;20221;-77
2022/10/04 02:53:32;;;;;;;0.00;0.00;;;11.90;99.90;;;;;;4967000;28;20197;-78
2022/10/04 02:56:03;;;;;;;0.10;0.10;;;11.90;99.90;;;;;;4962191;28;20201;-77
2022/10/04 02:58:32;;;;;;;0.10;0.10;;;11.90;99.90;;;;;;4981657;28;20228;-76
2022/10/04 03:01:01;;;;;;;0.00;0.00;;;11.90;99.90;;;;;;4981685;28;20208;-76
2022/10/04 03:03:30;;;;;;;0.10;0.10;;;11.90;99.90;;;;;;4967469;28;20238;-76
2022/10/04 03:06:03;;;;;;;0.10;0.10;;;11.80;99.90;;;;;;4965351;28;20254;-76
2022/10/04 03:08:35;;;;;;;0.10;0.10;;;11.80;99.90;;;;;;4990355;28;20207;-76
2022/10/04 03:11:05;;;;;;;0.03;0.03;;;11.80;99.90;;;;;;4962851;28;20292;-77
2022/10/04 03:13:36;;;;;;;0.10;0.10;;;11.80;99.90;;;;;;4961579;28;20260;-76
2022/10/04 03:16:04;;;;;;;0.10;0.10;;;11.80;99.90;;;;;;4986576;28;20200;-76
2022/10/04 03:18:34;;;;;;;0.10;0.10;;;11.80;99.90;;;;;;4974106;28;20224;-76
2022/10/04 03:21:07;;;;;;;0.10;0.10;;;11.70;99.90;;;;;;4971990;28;20204;-76
2022/10/04 03:23:36;;;;;;;0.10;0.10;;;11.70;99.90;;;;;;4974492;28;20275;-76
2022/10/04 03:26:19;;;;;;;0.03;0.03;;;11.70;99.90;;;;;;4996997;23;20699;-78
2022/10/04 03:28:48;;;;;;;0.10;0.10;;;11.70;99.90;;;;;;4967572;28;20202;-78
2022/10/04 03:31:18;;;;;;;0.10;0.10;;;11.70;99.90;;;;;;4955062;29;20225;-77
2022/10/04 03:33:47;;;;;;;0.00;0.00;;;11.70;99.90;;;;;;4955629;29;20205;-77
2022/10/04 03:36:18;;;;;;;0.10;0.10;;;11.70;99.90;;;;;;4959793;28;20225;-79
2022/10/04 03:38:48;;;;;;;0.10;0.10;;;11.60;99.90;;;;;;4959276;28;20274;-79
2022/10/04 03:41:17;;;;;;;0.10;0.10;;;11.60;99.90;;;;;;4973892;28;20193;-78
2022/10/04 03:43:49;;;;;;;0.00;0.00;;;11.70;99.90;;;;;;4973037;28;20624;-77
2022/10/04 03:46:21;;;;;;;0.10;0.10;;;11.70;99.90;;;;;;4970434;28;20687;-78
2022/10/04 03:48:51;;;;;;;0.10;0.10;;;11.50;99.90;;;;;;4969594;28;20202;-78
2022/10/04 03:51:21;;;;;;;0.10;0.10;;;11.60;99.90;;;;;;4954483;28;20292;-77
2022/10/04 03:53:51;;;;;;;0.10;0.10;;;11.60;99.90;;;;;;4966719;28;20204;-78
2022/10/04 03:56:26;;;;;;;0.10;0.10;;;11.40;99.90;;;;;;4962754;28;20204;-78
2022/10/04 03:58:55;;;;;;;0.10;0.10;;;11.30;99.90;;;;;;4981918;28;20194;-78
2022/10/04 04:01:36;;;;;;;0.10;0.10;;;11.30;99.90;;;;;;4993046;28;20204;-78
2022/10/04 04:04:16;;;;;;;0.00;0.00;;;11.30;99.90;;;;;;4996918;28;20185;-78
2022/10/04 04:06:51;;;;;;;0.10;0.10;;;11.30;99.90;;;;;;4969672;28;20198;-79
2022/10/04 04:09:25;;;;;;;0.10;0.10;;;11.30;99.90;;;;;;4958806;28;20232;-79
2022/10/04 04:11:57;;;;;;;0.10;0.10;;;11.20;99.90;;;;;;4967950;28;20225;-78
2022/10/04 04:14:27;;;;;;;0.10;0.10;;;11.10;99.90;;;;;;4967722;28;20236;-77
2022/10/04 04:17:36;;;;;;;0.10;0.10;;;11.10;99.90;;;;;;4977402;28;20235;-78
2022/10/04 04:20:12;;;;;;;0.10;0.10;;;11.00;99.90;;;;;;4967854;28;20255;-77
2022/10/04 04:22:43;;;;;;;0.10;0.10;;;11.00;99.90;;;;;;4968199;28;20256;-78
2022/10/04 04:25:15;;;;;;;0.00;0.00;;;11.00;99.90;;;;;;4976001;28;20275;-78
2022/10/04 04:27:49;;;;;;;0.10;0.10;;;10.90;99.90;;;;;;4973113;28;20252;-78
2022/10/04 04:30:18;;;;;;;0.10;0.10;;;10.90;99.90;;;;;;4967077;28;20925;-77
2022/10/04 04:32:51;;;;;;;0.10;0.10;;;11.00;99.90;;;;;;4976490;28;20299;-77
2022/10/04 04:35:25;;;;;;;0.10;0.10;;;10.80;99.90;;;;;;4976973;28;20224;-77
2022/10/04 04:38:05;;;;;;;0.10;0.10;;;10.80;99.90;;;;;;4955963;28;20206;-77
2022/10/04 04:40:33;;;;;;;0.10;0.10;;;10.80;99.90;;;;;;4948644;29;20201;-77
2022/10/04 04:43:02;;;;;;;0.10;0.10;;;10.80;99.90;;;;;;4959096;29;20194;-77
2022/10/04 04:45:32;;;;;;;0.10;0.10;;;10.80;99.90;;;;;;4959138;28;20222;-77
2022/10/04 04:48:02;;;;;;;0.10;0.10;;;10.80;99.90;;;;;;4958820;28;20628;-77
2022/10/04 04:50:34;;;;;;;0.10;0.10;;;10.80;99.90;;;;;;4958723;29;20198;-76
2022/10/04 04:53:08;;;;;;;0.10;0.10;;;10.80;99.90;;;;;;4954868;28;20704;-77
2022/10/04 04:55:39;;;;;;;0.10;0.10;;;10.80;99.90;;;;;;4944500;29;20253;-76
2022/10/04 04:58:31;;;;;;;0.10;0.10;;;10.80;99.90;;;;;;4940647;29;20238;-77
2022/10/04 05:01:03;;;;;;;0.00;0.00;;;10.80;99.90;;;;;;4941626;29;20302;-76
2022/10/04 05:03:33;;;;;;;0.10;0.10;;;10.90;99.90;;;;;;4941152;29;20195;-76
2022/10/04 05:06:03;;;;;;;0.10;0.10;;;10.90;99.90;;;;;;4943157;29;20688;-76
2022/10/04 05:08:36;;;;;;;0.10;0.10;;;10.90;99.90;;;;;;4941261;29;20607;-76
2022/10/04 05:11:15;;;;;;;0.10;0.10;;;10.90;99.90;;;;;;4943135;29;20229;-77
2022/10/04 05:13:48;;;;;;;0.10;0.10;;;11.00;99.90;;;;;;4940387;29;20209;-78
2022/10/04 05:16:22;;;;;;;0.10;0.10;;;10.90;99.90;;;;;;4940393;29;20233;-78
2022/10/04 05:18:59;;;;;;;0.10;0.10;;;10.80;99.90;;;;;;4939649;29;20246;-78
2022/10/04 05:21:31;;;;;;;0.10;0.10;;;10.80;99.90;;;;;;4943135;28;20217;-79
2022/10/04 05:24:10;;;;;;;0.10;0.10;;;10.80;99.90;;;;;;4955102;28;20206;-78
2022/10/04 05:26:38;;;;;;;0.10;0.10;;;10.70;99.90;;;;;;4947111;29;20206;-78
2022/10/04 05:29:21;;;;;;;0.10;0.10;;;10.70;99.90;;;;;;4960119;28;20202;-78
2022/10/04 05:32:02;;;;;;;0.10;0.10;;;10.70;99.90;;;;;;4968485;29;20225;-78
2022/10/04 05:34:38;;;;;;;0.10;0.10;;;10.80;99.90;;;;;;4943899;29;20248;-78
2022/10/04 05:37:21;;;;;;;0.10;0.10;;;10.80;99.90;;;;;;4951837;29;20224;-78
2022/10/04 05:40:00;;;;;;;0.10;0.10;;;10.80;99.90;;;;;;4971687;28;20204;-79
2022/10/04 05:42:37;;;;;;;0.10;0.10;;;10.90;99.90;;;;;;4976314;28;20240;-79
2022/10/04 05:45:16;;;;;;;0.00;0.00;;;10.90;99.90;;;;;;4977144;28;20221;-79
2022/10/04 05:47:46;;;;;;;0.10;0.10;;;10.90;99.90;;;;;;4977563;28;20203;-78
2022/10/04 05:50:19;;;;;;;0.10;0.10;;;10.90;99.90;;;;;;4981098;28;20557;-78
2022/10/04 05:52:50;;;;;;;0.10;0.10;;;10.90;99.90;;;;;;4979890;28;20227;-80
2022/10/04 05:55:32;;;;;;;0.10;0.10;;;10.90;99.90;;;;;;4976368;28;20225;-80
2022/10/04 05:58:28;;;;;;;0.10;0.10;;;10.90;99.90;;;;;;4979264;28;20255;-79
2022/10/04 06:01:21;;;;;;;0.10;0.10;;;10.80;99.90;;;;;;4981109;28;20193;-77
2022/10/04 06:04:15;;;;;;;0.10;0.10;;;10.80;99.90;;;;;;4979919;28;20204;-78
2022/10/04 06:06:49;;;;;;;0.10;0.10;;;10.80;99.90;;;;;;4981603;28;20664;-79
2022/10/04 06:09:35;;;;;;;0.10;0.10;;;10.70;99.90;;;;;;4978132;28;20263;-77
2022/10/04 06:12:11;;;;;;;0.03;0.03;;;10.80;99.90;;;;;;4980498;28;20244;-78
2022/10/04 06:14:57;;;;;;;0.10;0.10;;;10.80;99.90;;;;;;4977456;28;20252;-77
2022/10/04 06:17:41;;;;;;;0.10;0.10;;;10.90;99.90;;;;;;4977509;28;20248;-77
2022/10/04 06:20:40;;;;;;;0.10;0.10;;;10.80;99.90;;;;;;4979091;28;20215;-78
2022/10/04 06:23:16;;;;;;;0.10;0.10;;;10.90;99.90;;;;;;4972595;28;20213;-78
2022/10/04 06:25:48;;;;;;;0.10;0.10;;;10.90;99.90;;;;;;4979146;28;20232;-77
2022/10/04 06:28:23;;;;;;;0.10;0.10;;;10.80;99.90;;;;;;4980542;28;20252;-77
2022/10/04 06:31:10;;;;;;;0.10;0.10;;;11.00;99.90;;;;;;4959403;28;20212;-78
2022/10/04 06:33:57;;;;;;;0.10;0.10;;;11.00;99.90;;;;;;4975374;28;20264;-76
2022/10/04 06:36:48;;;;;;;0.00;0.00;;;11.00;99.90;;;;;;4975441;28;20251;-78
2022/10/04 06:39:35;;;;;;;0.10;0.10;;;11.00;99.90;;;;;;4975511;28;20197;-78
2022/10/04 06:42:22;;;;;;;0.10;0.10;;;10.90;99.90;;;;;;4975871;28;20196;-78
2022/10/04 06:45:18;;;;;;;0.10;0.10;;;10.80;99.90;;;;;;4976093;28;20224;-78
2022/10/04 06:48:04;;;;;;;0.10;0.10;;;10.80;99.90;;;;;;4943966;28;20221;-78
2022/10/04 06:50:42;;;;;;;0.10;0.10;;;10.80;99.90;;;;;;4976555;28;20243;-78
2022/10/04 06:53:35;;;;;;;0.10;0.10;;;10.80;99.90;;;;;;4978186;28;20314;-78
2022/10/04 06:56:26;;;;;;;0.00;0.00;;;10.80;99.90;;;;;;4978309;28;20232;-78
2022/10/04 06:59:30;;;;;;;0.10;0.10;;;10.90;99.90;;;;;;4979335;28;20328;-77
2022/10/04 07:02:03;;;;;;;0.10;0.10;;;10.80;99.90;;;;;;4975513;28;20672;-77
2022/10/04 07:04:37;;;;;;;0.10;0.10;;;10.70;99.90;;;;;;4976178;28;20221;-79
2022/10/04 07:07:37;;;;;;;0.10;0.10;;;10.70;99.90;;;;;;4976358;28;20792;-78
2022/10/04 07:10:28;;;;;;;0.10;0.10;;;10.80;99.90;;;;;;4978690;28;20212;-79
2022/10/04 07:13:10;;;;;;;0.10;0.10;;;10.80;99.90;;;;;;4978823;28;20288;-80
2022/10/04 07:15:46;;;;;;;0.08;0.08;;;10.80;99.90;;;;;;4979500;28;20232;-79
2022/10/04 07:18:20;;;;;;;0.10;0.10;;;10.90;99.90;;;;;;4977510;28;20197;-77
2022/10/04 07:20:52;;;;;;;0.10;0.10;;;10.80;99.90;;;;;;4978800;28;20212;-80
2022/10/04 07:23:27;;;;;;;0.10;0.10;;;10.90;99.90;;;;;;4995088;28;20216;-76
2022/10/04 07:26:01;;;;;;;0.10;0.10;;;10.90;99.90;;;;;;4996601;28;20223;-76
2022/10/04 07:31:25;;;;;;;0.00;0.00;;;11.00;99.90;;;;;;4990177;28;20284;-77
2022/10/04 07:33:57;;;;;;;0.10;0.10;;;11.10;99.90;;;;;;4986085;28;20275;-77
2022/10/04 07:36:38;;;;;;;0.10;0.10;;;11.10;99.90;;;;;;4979263;28;20193;-78
2022/10/04 07:39:12;;;;;;;0.10;0.10;;;11.10;99.90;;;;;;4976655;28;20197;-78
2022/10/04 07:41:48;;;;;;;0.10;0.10;;;11.20;99.90;;;;;;4974776;28;20244;-77
2022/10/04 07:44:27;;;;;;;0.10;0.10;;;11.30;99.90;;;;;;4974410;28;20576;-77
2022/10/04 07:47:00;;;;;;;0.10;0.10;;;11.30;99.90;;;;;;4973582;28;20205;-77
2022/10/04 07:49:31;;;;;;;0.10;0.10;;;11.30;99.90;;;;;;4975046;28;20204;-77
2022/10/04 07:52:45;;;;;;;0.10;0.10;;;11.40;99.90;;;;;;4975618;28;20185;-77
2022/10/04 07:55:20;;;;;;;0.10;0.10;;;11.40;99.90;;;;;;4943633;28;20232;-77
2022/10/04 07:57:58;;;;;;;0.00;0.00;;;11.50;99.90;;;;;;4977047;28;20600;-77
2022/10/04 08:00:34;;;;;;;0.10;0.10;;;11.50;99.90;;;;;;4977395;28;20591;-78
2022/10/04 08:03:21;;;;;;;0.10;0.10;;;11.60;99.90;;;;;;4976268;28;20227;-78
2022/10/04 08:05:54;;;;;;;0.10;0.10;;;11.60;99.90;;;;;;4974869;28;20224;-78
2022/10/04 08:08:44;;;;;;;0.10;0.10;;;11.70;99.90;;;;;;4976739;28;20193;-78
2022/10/04 08:11:24;;;;;;;0.03;0.03;;;11.80;99.90;;;;;;4975482;28;20201;-78
2022/10/04 08:14:03;;;;;;;0.00;0.00;;;11.80;99.90;;;;;;4971749;28;20401;-78
2022/10/04 08:16:37;;;;;;;0.10;0.10;;;11.80;99.90;;;;;;4951508;29;20582;-78
2022/10/04 08:19:21;;;;;;;0.00;0.00;;;11.80;99.90;;;;;;4951585;29;20230;-76
2022/10/04 08:21:58;;;;;;;0.10;0.10;;;11.80;99.90;;;;;;4954087;29;20234;-76
2022/10/04 08:24:35;;;;;;;0.10;0.10;;;11.80;99.90;;;;;;4954721;29;20222;-77
2022/10/04 08:27:23;;;;;;;0.10;0.10;;;11.80;99.90;;;;;;4940748;29;20208;-76
2022/10/04 08:30:03;;;;;;;0.10;0.10;;;11.90;99.90;;;;;;4936234;29;20199;-79
2022/10/04 08:33:05;;;;;;;0.05;0.05;;;11.90;99.90;;;;;;4939233;29;20194;-77
2022/10/04 08:35:36;;;;;;;0.00;0.00;;;11.90;99.90;;;;;;4938153;29;20705;-79
2022/10/04 08:38:20;;;;;;;0.10;0.10;;;12.00;99.90;;;;;;4941142;29;20198;-78
2022/10/04 08:41:15;;;;;;;0.00;0.00;;;12.10;99.90;;;;;;4942478;29;20206;-79
2022/10/04 08:44:12;;;;;;;0.10;0.10;;;12.20;99.90;;;;;;4940209;29;20262;-77
2022/10/04 08:47:04;;;;;;;0.00;0.00;;;12.30;99.90;;;;;;4943328;29;20574;-80
2022/10/04 08:49:51;;;;;;;0.00;0.00;;;12.40;99.90;;;;;;4937397;29;20215;-80
2022/10/04 08:52:39;;;;;;;0.10;0.10;;;12.50;99.90;;;;;;4939814;29;20203;-80
2022/10/04 08:55:33;;;;;;;0.10;0.10;;;12.60;99.90;;;;;;4939484;29;20254;-79
2022/10/04 08:58:12;;;;;;;0.10;0.10;;;12.70;99.90;;;;;;4942445;29;20234;-79
2022/10/04 09:01:01;;;;;;;0.10;0.10;;;12.70;99.90;;;;;;4941754;29;20563;-79
2022/10/04 09:04:11;;;;;;;0.00;0.00;;;12.70;99.90;;;;;;4940903;29;20202;-79
2022/10/04 09:06:58;;;;;;;0.00;0.00;;;12.80;99.90;;;;;;4927637;29;20214;-77
2022/10/04 09:09:57;;;;;;;0.05;0.05;;;12.80;99.90;;;;;;4937729;29;20261;-77
2022/10/04 09:12:59;;;;;;;0.00;0.00;;;12.90;99.90;;;;;;4938762;29;20270;-78
2022/10/04 09:15:51;;;;;;;0.08;0.08;;;12.90;99.90;;;;;;4938583;29;20222;-79
2022/10/04 09:18:45;;;;;;;0.00;0.00;;;13.00;99.90;;;;;;4938105;29;20214;-78
2022/10/04 09:21:26;;;;;;;0.00;0.00;;;13.10;99.90;;;;;;4939298;29;20202;-77
2022/10/04 09:24:32;;;;;;;0.00;0.00;;;13.20;99.90;;;;;;4938758;29;20194;-77
2022/10/04 09:27:15;;;;;;;0.10;0.10;;;13.30;99.90;;;;;;4938148;29;20202;-78
2022/10/04 09:30:14;;;;;;;0.10;0.10;;;13.30;99.90;;;;;;4949197;28;20205;-77
2022/10/04 09:33:09;;;;;;;0.05;0.05;;;13.30;99.90;;;;;;4955340;29;20194;-77
2022/10/04 09:36:07;;;;;;;0.00;0.00;;;13.40;99.90;;;;;;4955189;28;20628;-76
2022/10/04 09:39:02;;;;;;;0.10;0.10;;;13.40;99.90;;;;;;4954860;29;20241;-77
2022/10/04 09:42:05;;;;;;;0.10;0.10;;;13.50;99.90;;;;;;4955865;29;20277;-76
2022/10/04 09:45:19;;;;;;;0.10;0.10;;;13.60;99.90;;;;;;4955735;28;20358;-76
2022/10/04 09:47:57;;;;;;;0.10;0.10;;;13.60;99.90;;;;;;4935811;28;20570;-77
2022/10/04 09:50:46;;;;;;;0.00;0.00;;;13.60;99.90;;;;;;4935832;29;20210;-77
2022/10/04 09:53:30;;;;;;;0.10;0.10;;;13.60;99.90;;;;;;4936074;29;20242;-77
2022/10/04 09:56:31;;;;;;;0.10;0.10;;;13.70;99.90;;;;;;4935915;29;20222;-76
2022/10/04 09:59:25;;;;;;;0.00;0.00;;;13.80;99.90;;;;;;4935516;29;20539;-77
2022/10/04 10:02:27;;;;;;;0.10;0.10;;;14.00;99.90;;;;;;4935766;29;20608;-77
2022/10/04 10:05:18;;;;;;;0.00;0.00;;;14.00;99.90;;;;;;4936471;29;20220;-77
2022/10/04 10:07:52;;;;;;;0.00;0.00;;;14.10;99.90;;;;;;4918833;29;20273;-77
2022/10/04 10:16:25;;;;;;;0.00;0.00;;;14.30;99.90;;;;;;4936104;29;20556;-77
2022/10/04 10:19:05;;;;;;;0.00;0.00;;;14.30;99.90;;;;;;4936324;29;20195;-77
2022/10/04 10:22:09;;;;;;;0.00;0.00;;;14.40;99.90;;;;;;4935464;29;20202;-77
2022/10/04 10:25:01;;;;;;;0.00;0.00;;;14.40;99.90;;;;;;4935491;29;20312;-77
2022/10/04 10:27:46;;;;;;;0.00;0.00;;;14.50;99.90;;;;;;4935780;29;20194;-77
2022/10/04 10:30:24;;;;;;;0.00;0.00;;;14.60;99.90;;;;;;4935725;29;20202;-77
2022/10/04 10:33:25;;;;;;;0.10;0.10;;;14.70;99.90;;;;;;4936024;29;20278;-78
2022/10/04 10:36:23;;;;;;;0.10;0.10;;;14.80;99.90;;;;;;4933211;29;20246;-78
2022/10/04 10:39:03;;;;;;;0.00;0.00;;;14.80;99.90;;;;;;4935477;29;20291;-76
2022/10/04 10:41:41;;;;;;;0.00;0.00;;;14.80;99.90;;;;;;4935369;29;20202;-77
2022/10/04 10:44:25;;;;;;;0.00;0.00;;;14.80;99.90;;;;;;4935589;29;20198;-78
2022/10/04 10:47:05;;;;;;;0.00;0.00;;;14.90;99.90;;;;;;4936134;29;20557;-77
2022/10/04 10:49:57;;;;;;;0.10;0.10;;;14.90;99.90;;;;;;4935114;29;20670;-77
2022/10/04 10:52:55;;;;;;;0.00;0.00;;;14.90;99.90;;;;;;4935312;29;20550;-77
2022/10/04 10:55:30;;;;;;;0.10;0.10;;;15.00;99.90;;;;;;4935344;29;20226;-77
2022/10/04 10:58:37;;;;;;;0.00;0.00;;;15.20;99.90;;;;;;4935120;29;20208;-77
2022/10/04 11:01:31;;;;;;;0.10;0.10;;;15.30;99.90;;;;;;4935764;29;20661;-77
2022/10/04 11:04:22;;;;;;;0.00;0.00;;;15.40;99.90;;;;;;4935352;29;20191;-77
2022/10/04 11:07:19;;;;;;;0.00;0.00;;;15.50;99.90;;;;;;4935490;29;20195;-77
2022/10/04 11:10:29;;;;;;;0.00;0.00;;;15.70;99.90;;;;;;4935529;29;20202;-77
2022/10/04 11:13:20;;;;;;;0.10;0.10;;;16.00;99.90;;;;;;4895695;29;20598;-78
2022/10/04 11:16:21;;;;;;;0.10;0.10;;;16.10;99.90;;;;;;4935116;29;20643;-77
2022/10/04 11:19:22;;;;;;;0.10;0.10;;;16.60;99.90;;;;;;4934147;29;20214;-77
2022/10/04 11:22:23;;;;;;;0.00;0.00;;;17.00;99.90;;;;;;4935473;29;20198;-77
2022/10/04 11:25:16;;;;;;;0.00;0.00;;;17.40;99.90;;;;;;4902534;29;20242;-77
2022/10/04 11:27:54;;;;;;;0.00;0.00;;;17.60;99.90;;;;;;4936319;29;20194;-78
2022/10/04 11:30:28;;;;;;;0.00;0.00;;;17.80;99.90;;;;;;4935940;29;20201;-78
2022/10/04 11:33:31;;;;;;;0.00;0.00;;;18.00;99.90;;;;;;4935949;29;20666;-78
2022/10/04 11:36:11;;;;;;;0.00;0.00;;;18.00;99.90;;;;;;4934957;29;20336;-77
2022/10/04 11:38:57;;;;;;;0.00;0.00;;;18.30;99.90;;;;;;4935299;29;20233;-78
2022/10/04 11:41:39;;;;;;;0.00;0.00;;;18.40;99.90;;;;;;4935150;29;20194;-77
2022/10/04 11:44:51;;;;;;;0.00;0.00;;;18.50;99.90;;;;;;4935673;28;20214;-77
2022/10/04 11:47:34;;;;;;;0.00;0.00;;;18.50;99.90;;;;;;4953881;29;20197;-78
2022/10/04 11:50:32;;;;;;;0.00;0.00;;;18.70;99.90;;;;;;4953726;29;20308;-77
2022/10/04 11:53:29;;;;;;;0.00;0.00;;;18.70;99.90;;;;;;4936683;29;20285;-78
2022/10/04 11:56:15;;;;;;;0.00;0.00;;;18.90;99.90;;;;;;4954211;28;20221;-77
2022/10/04 11:59:10;;;;;;;0.00;0.00;;;19.10;99.90;;;;;;4953862;29;20201;-78
2022/10/04 12:02:17;;;;;;;0.00;0.00;;;19.00;99.90;;;;;;4954335;29;20198;-78
2022/10/04 12:05:12;;;;;;;0.00;0.00;;;19.10;99.90;;;;;;4954201;28;20217;-77
2022/10/04 12:07:48;;;;;;;0.00;0.00;;;19.30;99.90;;;;;;4954130;29;20213;-77
2022/10/04 12:10:23;;;;;;;0.00;0.00;;;19.50;99.90;;;;;;4953949;28;20225;-78
2022/10/04 12:13:26;;;;;;;0.00;0.00;;;19.80;99.90;;;;;;4957280;29;20255;-77
2022/10/04 12:16:22;;;;;;;0.00;0.00;;;19.70;99.90;;;;;;4955398;28;20232;-78
2022/10/04 12:19:31;;;;;;;0.00;0.00;;;19.40;99.90;;;;;;4957295;29;20194;-77
2022/10/04 12:22:19;;;;;;;0.00;0.00;;;19.50;99.90;;;;;;4963555;29;20589;-77
2022/10/04 12:25:12;;;;;;;0.00;0.00;;;19.60;99.90;;;;;;4962882;28;20681;-78
2022/10/04 12:28:11;;;;;;;0.00;0.00;;;19.70;99.90;;;;;;4959469;29;20213;-78
2022/10/04 12:31:11;;;;;;;0.00;0.00;;;19.60;99.90;;;;;;4959457;29;20198;-78
2022/10/04 12:33:46;;;;;;;0.00;0.00;;;19.50;99.90;;;;;;4960210;29;20232;-78
2022/10/04 12:36:48;;;;;;;0.00;0.00;;;19.40;99.90;;;;;;4959366;28;20228;-78
2022/10/04 12:39:44;;;;;;;0.00;0.00;;;19.30;99.90;;;;;;4961015;28;20245;-77
2022/10/04 12:42:23;;;;;;;0.00;0.00;;;19.20;99.90;;;;;;4973165;29;20301;-78
2022/10/04 12:45:18;;;;;;;0.00;0.00;;;19.40;99.90;;;;;;4975436;28;20224;-77
2022/10/04 12:48:04;;;;;;;0.00;0.00;;;19.40;99.90;;;;;;4957106;29;20680;-78
2022/10/04 12:50:46;;;;;;;0.00;0.00;;;19.50;99.90;;;;;;4958239;29;20206;-78
2022/10/04 12:53:22;;;;;;;0.00;0.00;;;19.40;99.90;;;;;;4957568;29;20202;-78
2022/10/04 12:56:08;;;;;;;0.00;0.00;;;19.60;99.90;;;;;;4957462;28;20236;-78
2022/10/04 12:59:01;;;;;;;0.00;0.00;;;19.60;99.90;;;;;;4958460;29;20204;-78
2022/10/04 13:01:38;;;;;;;0.00;0.00;;;19.70;99.90;;;;;;4957467;29;20233;-78
2022/10/04 13:04:23;;;;;;;0.00;0.00;;;19.80;99.90;;;;;;4957616;28;20229;-78
2022/10/04 13:07:06;;;;;;;0.00;0.00;;;19.90;99.90;;;;;;4957032;29;20202;-78
2022/10/04 13:09:44;;;;;;;0.00;0.00;;;19.90;99.90;;;;;;4956785;29;20201;-78
2022/10/04 13:12:58;;;;;;;0.00;0.00;;;20.00;99.90;;;;;;4957451;29;20568;-78
2022/10/04 13:15:41;;;;;;;0.00;0.00;;;19.60;99.90;;;;;;4958538;28;20296;-78
2022/10/04 13:18:39;;;;;;;0.00;0.00;;;19.40;99.90;;;;;;4959447;29;20206;-78
2022/10/04 13:21:11;;;;;;;0.00;0.00;;;19.40;99.90;;;;;;4959098;28;20205;-78
2022/10/04 13:23:54;;;;;;;0.00;0.00;;;19.60;99.90;;;;;;4958564;28;20205;-78
2022/10/04 13:26:40;;;;;;;0.00;0.00;;;19.50;99.90;;;;;;4958274;29;20210;-78
2022/10/04 13:29:20;;;;;;;0.00;0.00;;;19.30;99.90;;;;;;4958780;29;20221;-78
2022/10/04 13:31:52;;;;;;;0.00;0.00;;;19.40;99.90;;;;;;4962436;29;20268;-78
2022/10/04 13:34:32;;;;;;;0.00;0.00;;;19.30;99.90;;;;;;4940582;29;20237;-78
2022/10/04 13:37:20;;;;;;;0.00;0.00;;;19.20;99.90;;;;;;4942388;28;20632;-78
2022/10/04 13:40:15;;;;;;;0.00;0.00;;;19.40;99.90;;;;;;4925210;29;20218;-78
2022/10/04 13:43:05;;;;;;;0.00;0.00;;;19.60;99.90;;;;;;4939733;29;20206;-78
2022/10/04 13:46:01;;;;;;;0.00;0.00;;;19.50;99.90;;;;;;4938444;29;20230;-78
2022/10/04 13:48:39;;;;;;;0.00;0.00;;;19.20;99.90;;;;;;4939370;29;20203;-78
2022/10/04 13:51:25;;;;;;;0.00;0.00;;;19.00;99.90;;;;;;4939060;29;20190;-78
2022/10/04 13:57:00;;;;;;;0.00;0.00;;;18.60;99.90;;;;;;4922630;29;20281;-79
2022/10/04 13:59:37;;;;;;;0.00;0.00;;;18.70;99.90;;;;;;4955822;28;20190;-79
2022/10/04 14:02:44;;;;;;;0.00;0.00;;;18.70;99.90;;;;;;4959509;29;20197;-78
2022/10/04 14:05:47;;;;;;;0.00;0.00;;;18.50;99.90;;;;;;4959382;29;20205;-77
2022/10/04 14:08:50;;;;;;;0.00;0.00;;;18.20;99.90;;;;;;4965324;28;20209;-78
2022/10/04 14:12:06;;;;;;;0.00;0.00;;;18.20;99.90;;;;;;4929420;29;20295;-78
2022/10/04 14:15:16;;;;;;;0.00;0.00;;;18.00;99.90;;;;;;4955080;28;20265;-78
2022/10/04 14:18:17;;;;;;;0.00;0.00;;;17.90;99.90;;;;;;4937477;29;20626;-78
2022/10/04 14:21:40;;;;;;;0.00;0.00;;;17.90;99.90;;;;;;4936642;29;20678;-77